Time;durP1;ratioP1;P1;durP2;ratioP2;P2;SDS_P1;SDS_P2;PMS_P1;PMS_P2;Temp;Humidity;BMP_temperature;BMP_pressure;BME280_temperature;BME280_humidity;BME280_pressure;Samples;Min_cycle;Max_cycle;Signal;HPM_P1;HPM_P2
2022/08/19 00:01:53;;;;;;;11.45;9.43;;;;;;;23.85;55.75;97898.28;5032046;28;20037;-73
2022/08/19 00:04:25;;;;;;;17.38;14.43;;;;;;;23.82;55.67;97885.91;5034716;28;20491;-73
2022/08/19 00:06:51;;;;;;;26.33;18.48;;;;;;;23.81;55.92;97878.69;5032362;28;20419;-73
2022/08/19 00:09:19;;;;;;;14.15;12.65;;;;;;;23.78;56.07;97885.09;5029670;28;20088;-73
2022/08/19 00:11:45;;;;;;;13.57;11.70;;;;;;;23.74;56.03;97879.50;5032969;28;20053;-73
2022/08/19 00:14:13;;;;;;;13.73;10.65;;;;;;;23.72;56.10;97884.72;5032319;28;20068;-72
2022/08/19 00:16:41;;;;;;;14.85;12.43;;;;;;;23.70;56.25;97881.50;5031498;28;20040;-73
2022/08/19 00:19:08;;;;;;;12.10;9.70;;;;;;;23.68;56.38;97878.31;5031702;28;20021;-74
2022/08/19 00:21:39;;;;;;;11.23;8.90;;;;;;;23.65;56.47;97879.09;5035892;28;20438;-74
2022/08/19 00:24:06;;;;;;;10.77;8.05;;;;;;;23.60;56.57;97885.09;5032519;28;20028;-74
2022/08/19 00:26:32;;;;;;;11.85;9.00;;;;;;;23.53;56.60;97871.91;5030559;28;20029;-74
2022/08/19 00:28:57;;;;;;;15.10;10.95;;;;;;;23.51;56.66;97874.28;5032959;28;20446;-74
2022/08/19 00:31:22;;;;;;;13.75;11.50;;;;;;;23.47;56.75;97865.09;5034673;28;20112;-74
2022/08/19 00:33:50;;;;;;;12.35;9.70;;;;;;;23.42;56.82;97860.69;5032504;28;20032;-74
2022/08/19 00:36:16;;;;;;;10.68;9.10;;;;;;;23.39;56.83;97861.50;5031520;28;20017;-74
2022/08/19 00:38:42;;;;;;;10.18;8.57;;;;;;;23.36;57.06;97862.28;5032388;28;20041;-74
2022/08/19 00:41:10;;;;;;;11.30;8.25;;;;;;;23.34;57.18;97859.88;5030936;28;20120;-74
2022/08/19 00:43:35;;;;;;;12.18;8.57;;;;;;;23.33;57.27;97855.47;5028197;28;20045;-74
2022/08/19 00:46:04;;;;;;;11.20;8.93;;;;;;;23.31;57.37;97852.25;5032849;28;20032;-75
2022/08/19 00:48:31;;;;;;;10.55;8.52;;;;;;;23.29;57.29;97851.84;5031084;28;20104;-74
2022/08/19 00:50:58;;;;;;;10.43;8.68;;;;;;;23.28;57.51;97852.28;5034483;28;20029;-75
2022/08/19 00:53:27;;;;;;;12.45;8.57;;;;;;;23.27;57.54;97843.06;5031049;28;20101;-74
2022/08/19 00:55:56;;;;;;;10.75;9.27;;;;;;;23.26;57.64;97846.25;5030407;28;20108;-74
2022/08/19 00:58:27;;;;;;;10.35;8.32;;;;;;;23.24;57.81;97843.06;5034315;28;20033;-75
2022/08/19 01:00:52;;;;;;;11.30;9.13;;;;;;;23.20;57.71;97834.66;5031007;28;20025;-74
2022/08/19 01:03:19;;;;;;;11.57;8.93;;;;;;;23.18;57.94;97839.84;5031585;28;20029;-75
2022/08/19 01:05:47;;;;;;;13.52;9.25;;;;;;;23.15;57.98;97841.41;5031066;28;20029;-75
2022/08/19 01:08:15;;;;;;;10.55;8.80;;;;;;;23.14;58.09;97839.03;5030861;28;20545;-75
2022/08/19 01:10:54;;;;;;;10.87;9.47;;;;;;;23.10;57.95;97832.63;5027826;28;20112;-74
2022/08/19 01:13:23;;;;;;;12.73;9.23;;;;;;;23.09;57.95;97836.63;5028665;28;20036;-75
2022/08/19 01:15:54;;;;;;;13.55;9.95;;;;;;;23.02;58.18;97823.41;5030650;28;20269;-76
2022/08/19 01:18:21;;;;;;;14.05;9.38;;;;;;;23.00;58.45;97839.78;5032317;28;20021;-74
2022/08/19 01:20:47;;;;;;;11.63;9.25;;;;;;;22.96;58.40;97834.19;5026949;28;20029;-75
2022/08/19 01:23:13;;;;;;;11.07;9.10;;;;;;;22.93;58.35;97834.19;5025284;28;20212;-76
2022/08/19 01:25:51;;;;;;;10.27;9.00;;;;;;;22.90;58.50;97827.34;5027864;28;20033;-75
2022/08/19 01:28:19;;;;;;;13.07;9.30;;;;;;;22.88;58.80;97821.38;5024657;28;20543;-75
2022/08/19 01:30:46;;;;;;;11.68;9.75;;;;;;;22.86;58.72;97821.78;5032278;28;20087;-75
2022/08/19 01:33:12;;;;;;;10.88;9.60;;;;;;;22.81;58.94;97822.16;5031453;28;20044;-75
2022/08/19 01:35:37;;;;;;;13.80;9.35;;;;;;;22.80;59.18;97828.94;5028881;28;20029;-74
2022/08/19 01:38:07;;;;;;;11.15;9.18;;;;;;;22.77;59.17;97823.34;5031259;28;20387;-75
2022/08/19 01:40:36;;;;;;;11.95;9.25;;;;;;;22.78;59.29;97822.16;5030253;28;20499;-75
2022/08/19 01:43:03;;;;;;;11.95;9.43;;;;;;;22.74;59.29;97822.94;5027935;28;20037;-75
2022/08/19 01:45:30;;;;;;;9.98;8.70;;;;;;;22.73;59.22;97823.31;5028096;28;20056;-75
2022/08/19 01:47:57;;;;;;;12.13;8.73;;;;;;;22.73;59.36;97831.69;5030962;28;20108;-75
2022/08/19 01:50:23;;;;;;;11.40;9.07;;;;;;;22.73;59.53;97826.09;5036705;28;20025;-74
2022/08/19 01:52:49;;;;;;;11.90;9.35;;;;;;;22.70;59.53;97822.13;5036417;28;20391;-74
2022/08/19 01:55:18;;;;;;;12.55;9.60;;;;;;;22.69;59.68;97826.09;5039549;28;20029;-74
2022/08/19 01:57:49;;;;;;;13.20;9.40;;;;;;;22.66;59.57;97823.28;5037733;28;20029;-75
2022/08/19 02:00:17;;;;;;;12.50;9.70;;;;;;;22.64;59.72;97815.31;5035235;28;20024;-74
2022/08/19 02:02:43;;;;;;;10.93;9.07;;;;;;;22.63;59.85;97824.88;5040777;28;20083;-73
2022/08/19 02:05:09;;;;;;;10.95;9.02;;;;;;;22.62;59.84;97826.06;5042488;28;20029;-74
2022/08/19 02:07:35;;;;;;;12.88;10.32;;;;;;;22.60;59.97;97826.47;5031898;28;20029;-75
2022/08/19 02:10:04;;;;;;;13.18;10.38;;;;;;;22.57;59.99;97824.47;5054178;28;20036;-75
2022/08/19 02:12:29;;;;;;;13.18;9.75;;;;;;;22.56;59.93;97824.84;5052879;28;20045;-75
2022/08/19 02:14:55;;;;;;;10.00;8.93;;;;;;;22.54;59.76;97814.06;5036306;28;20476;-74
2022/08/19 02:17:20;;;;;;;13.05;9.80;;;;;;;22.54;60.25;97811.28;5043305;28;20395;-74
2022/08/19 02:19:46;;;;;;;11.00;9.32;;;;;;;22.52;60.27;97813.66;5048850;28;20036;-75
2022/08/19 02:22:12;;;;;;;15.38;9.77;;;;;;;22.47;60.25;97816.81;5058118;28;20083;-74
2022/08/19 02:24:38;;;;;;;12.25;10.35;;;;;;;22.45;60.29;97806.03;5024422;28;20124;-74
2022/08/19 02:27:04;;;;;;;12.05;9.52;;;;;;;22.42;60.43;97803.97;5020678;28;20037;-74
2022/08/19 02:29:29;;;;;;;11.98;9.93;;;;;;;22.40;60.57;97800.00;5037776;28;20541;-74
2022/08/19 02:31:55;;;;;;;11.90;10.13;;;;;;;22.37;60.58;97801.59;5036117;28;20025;-75
2022/08/19 02:34:20;;;;;;;12.75;9.70;;;;;;;22.36;60.57;97801.97;5037909;28;20402;-75
2022/08/19 02:36:46;;;;;;;11.15;9.75;;;;;;;22.35;60.70;97811.53;5037859;28;20472;-74
2022/08/19 02:39:11;;;;;;;14.23;9.57;;;;;;;22.33;60.79;97808.34;5038049;28;20029;-74
2022/08/19 02:41:36;;;;;;;13.63;9.98;;;;;;;22.33;60.81;97809.16;5035255;28;20109;-74
2022/08/19 02:44:04;;;;;;;12.02;9.73;;;;;;;22.31;60.91;97805.94;5038253;28;20045;-74
2022/08/19 02:46:32;;;;;;;12.25;9.65;;;;;;;22.29;61.00;97795.16;5037787;28;20083;-74
2022/08/19 02:49:06;;;;;;;14.30;10.38;;;;;;;22.27;60.84;97807.91;5038153;28;20353;-73
2022/08/19 02:51:40;;;;;;;14.07;10.30;;;;;;;22.25;61.03;97805.50;5037311;28;20061;-74
2022/08/19 02:54:07;;;;;;;12.82;10.32;;;;;;;22.21;60.96;97795.50;5037658;28;20472;-74
2022/08/19 02:56:35;;;;;;;11.45;9.65;;;;;;;22.20;61.19;97785.53;5036655;28;20025;-74
2022/08/19 02:59:01;;;;;;;11.48;9.38;;;;;;;22.16;61.14;97793.91;5035771;28;20022;-74
2022/08/19 03:01:30;;;;;;;11.55;10.05;;;;;;;22.14;61.57;97796.28;5033855;28;20030;-74
2022/08/19 03:03:57;;;;;;;12.77;9.85;;;;;;;22.11;61.26;97797.06;5034650;28;20059;-74
2022/08/19 03:06:23;;;;;;;11.55;9.70;;;;;;;22.09;61.25;97791.84;5034446;28;20033;-73
2022/08/19 03:08:49;;;;;;;11.68;10.13;;;;;;;22.07;61.55;97796.25;5034683;28;20022;-74
2022/08/19 03:11:18;;;;;;;11.93;9.80;;;;;;;22.07;61.66;97790.66;5034730;28;20044;-74
2022/08/19 03:13:44;;;;;;;16.98;10.32;;;;;;;22.07;61.76;97790.66;5033403;28;20605;-74
2022/08/19 03:16:12;;;;;;;11.57;9.88;;;;;;;22.06;61.60;97795.41;5033336;28;20036;-74
2022/08/19 03:18:38;;;;;;;10.75;9.52;;;;;;;22.07;61.66;97801.81;5032023;28;20029;-73
2022/08/19 03:21:04;;;;;;;13.48;10.43;;;;;;;22.04;61.58;97808.97;5028538;28;20025;-73
2022/08/19 03:23:30;;;;;;;11.88;10.57;;;;;;;22.03;61.84;97803.78;5031012;28;20503;-73
2022/08/19 03:25:55;;;;;;;14.00;10.20;;;;;;;22.05;61.73;97818.16;5030819;28;20029;-74
2022/08/19 03:28:21;;;;;;;12.30;9.77;;;;;;;22.03;61.75;97815.75;5025466;28;20037;-73
2022/08/19 03:31:01;;;;;;;14.70;10.48;;;;;;;21.99;61.65;97812.94;5053881;28;20031;-73
2022/08/19 03:33:28;;;;;;;13.50;10.32;;;;;;;22.00;62.04;97820.13;5034964;28;20033;-73
2022/08/19 03:36:09;;;;;;;13.52;10.55;;;;;;;21.98;61.83;97825.28;5034743;28;20021;-74
2022/08/19 03:38:40;;;;;;;12.68;10.35;;;;;;;21.98;62.01;97822.50;5034503;28;20040;-74
2022/08/19 03:41:09;;;;;;;11.73;10.38;;;;;;;21.96;61.98;97824.09;5022766;28;20030;-74
2022/08/19 03:43:37;;;;;;;13.38;10.82;;;;;;;21.93;62.03;97822.88;5014285;28;20496;-73
2022/08/19 03:46:05;;;;;;;16.33;11.15;;;;;;;21.94;62.03;97826.47;5025612;28;20502;-73
2022/08/19 03:48:31;;;;;;;11.70;10.32;;;;;;;21.92;62.01;97823.25;5034137;28;20380;-74
2022/08/19 03:50:58;;;;;;;13.07;10.57;;;;;;;21.89;62.24;97826.84;5021987;28;20025;-74
2022/08/19 03:53:26;;;;;;;13.27;10.50;;;;;;;21.85;62.18;97835.16;5038894;28;20024;-73
2022/08/19 03:55:53;;;;;;;13.07;10.55;;;;;;;21.83;62.27;97838.34;5053507;28;20033;-73
2022/08/19 03:58:18;;;;;;;13.35;11.40;;;;;;;21.82;62.18;97849.88;5053683;28;20112;-73
2022/08/19 04:00:44;;;;;;;12.60;10.52;;;;;;;21.81;62.29;97839.91;5041382;28;20109;-73
2022/08/19 04:03:09;;;;;;;14.13;10.68;;;;;;;21.81;62.41;97849.09;5033648;28;20360;-74
2022/08/19 04:05:35;;;;;;;13.05;10.85;;;;;;;21.83;62.54;97857.06;5033392;28;20036;-73
2022/08/19 04:08:00;;;;;;;14.38;11.00;;;;;;;21.86;62.62;97854.31;5032845;28;20022;-74
2022/08/19 04:10:28;;;;;;;14.43;10.82;;;;;;;21.89;62.64;97863.91;5036128;28;20025;-74
2022/08/19 04:12:53;;;;;;;13.07;11.05;;;;;;;21.95;62.79;97872.75;5015927;28;20529;-73
2022/08/19 04:15:20;;;;;;;12.60;10.18;;;;;;;21.96;62.91;97863.19;5033225;28;20044;-74
2022/08/19 04:17:46;;;;;;;13.32;10.23;;;;;;;22.01;62.99;97877.56;5033147;28;20365;-74
2022/08/19 04:20:11;;;;;;;17.02;11.27;;;;;;;22.03;62.93;97876.38;5013813;28;20061;-75
2022/08/19 04:22:38;;;;;;;13.05;10.90;;;;;;;22.06;63.10;97879.19;5025409;28;20029;-75
2022/08/19 04:25:04;;;;;;;16.60;11.57;;;;;;;22.10;62.99;97890.41;5031716;28;20392;-74
2022/08/19 04:27:31;;;;;;;12.63;11.10;;;;;;;22.15;63.02;97884.47;5035417;28;20044;-73
2022/08/19 04:29:56;;;;;;;13.98;11.13;;;;;;;22.19;63.01;97882.50;5032481;28;20032;-73
2022/08/19 04:32:22;;;;;;;13.32;10.80;;;;;;;22.22;63.05;97884.47;5035350;28;20033;-73
2022/08/19 04:34:47;;;;;;;13.57;10.57;;;;;;;22.26;63.08;97887.31;5029755;28;20379;-73
2022/08/19 04:37:13;;;;;;;12.07;10.43;;;;;;;22.30;63.09;97885.34;5035070;28;20472;-74
2022/08/19 04:42:38;;;;;;;13.35;11.25;;;;;;;22.38;63.08;97887.00;5034155;28;20045;-73
2022/08/19 04:45:10;;;;;;;13.52;10.25;;;;;;;22.40;62.87;97876.25;5038761;28;20037;-73
2022/08/19 04:47:40;;;;;;;13.70;10.85;;;;;;;22.43;63.02;97886.63;5024080;28;20025;-73
2022/08/19 04:50:07;;;;;;;13.07;10.55;;;;;;;22.44;62.99;97876.28;5028981;28;20017;-73
2022/08/19 04:52:33;;;;;;;13.98;11.15;;;;;;;22.44;62.85;97881.88;5036064;28;20067;-74
2022/08/19 04:54:59;;;;;;;11.60;10.30;;;;;;;22.46;62.94;97885.06;5026028;28;20463;-74
2022/08/19 04:57:26;;;;;;;14.43;10.80;;;;;;;22.46;63.03;97887.88;5031674;28;20048;-74
2022/08/19 04:59:56;;;;;;;14.45;10.82;;;;;;;22.48;62.97;97884.66;5033030;28;20029;-73
2022/08/19 05:02:25;;;;;;;13.40;10.18;;;;;;;22.50;62.89;97888.69;5033525;28;20029;-74
2022/08/19 05:04:57;;;;;;;13.48;10.82;;;;;;;22.53;62.92;97887.91;5029794;28;20107;-74
2022/08/19 05:07:22;;;;;;;13.30;10.57;;;;;;;22.54;62.99;97886.72;5032902;28;20021;-74
2022/08/19 05:09:48;;;;;;;12.63;10.70;;;;;;;22.58;62.95;97889.53;5033426;28;20098;-74
2022/08/19 05:12:13;;;;;;;12.63;10.75;;;;;;;22.61;63.06;97885.94;5031455;28;20022;-74
2022/08/19 05:14:38;;;;;;;14.52;11.40;;;;;;;22.65;62.86;97885.97;5034136;28;20033;-73
2022/08/19 05:17:04;;;;;;;13.40;11.05;;;;;;;22.67;62.89;97880.78;5033272;28;20025;-74
2022/08/19 05:22:32;;;;;;;14.60;10.80;;;;;;;22.75;63.01;97886.03;5031222;28;20040;-74
2022/08/19 05:24:57;;;;;;;13.10;10.13;;;;;;;22.80;63.04;97882.03;5019973;28;20029;-74
2022/08/19 05:27:23;;;;;;;13.35;10.85;;;;;;;22.83;62.88;97886.84;5030695;28;20522;-73
2022/08/19 05:29:48;;;;;;;15.90;11.07;;;;;;;22.88;62.81;97889.28;5029385;28;20052;-74
2022/08/19 05:32:13;;;;;;;13.73;10.60;;;;;;;22.92;62.76;97891.28;5031974;28;20060;-74
2022/08/19 05:34:39;;;;;;;12.90;10.07;;;;;;;22.96;62.79;97898.47;5030962;28;20030;-74
2022/08/19 05:37:05;;;;;;;15.45;10.75;;;;;;;23.00;62.76;97896.50;5030567;28;20025;-74
2022/08/19 05:39:33;;;;;;;13.88;10.20;;;;;;;23.04;62.73;97893.72;5032304;28;20029;-73
2022/08/19 05:42:03;;;;;;;13.27;11.05;;;;;;;23.10;62.84;97892.13;5029143;28;20061;-74
2022/08/19 05:44:33;;;;;;;;;;;;;;;23.17;62.79;97888.59;5028668;28;20049;-74
2022/08/19 05:47:00;;;;;;;12.00;10.20;;;;;;;23.20;62.68;97888.59;5030654;28;20028;-74
2022/08/19 05:49:27;;;;;;;12.63;10.30;;;;;;;23.24;62.58;97897.00;5033046;28;20063;-72
2022/08/19 05:51:53;;;;;;;13.95;10.43;;;;;;;23.30;62.55;97892.63;5033266;28;20036;-73
2022/08/19 05:54:19;;;;;;;12.45;10.77;;;;;;;23.34;62.55;97903.84;5031723;28;20125;-74
2022/08/19 05:56:47;;;;;;;18.92;10.23;;;;;;;23.40;62.53;97899.47;5031566;28;20444;-74
2022/08/19 05:59:15;;;;;;;17.45;10.48;;;;;;;23.47;62.38;97895.88;5033551;28;20031;-73
2022/08/19 06:01:45;;;;;;;12.93;10.30;;;;;;;23.51;62.24;97896.69;5027701;28;20053;-74
2022/08/19 06:04:18;;;;;;;11.95;10.20;;;;;;;23.56;62.35;97903.88;5031007;28;20017;-73
2022/08/19 06:06:44;;;;;;;15.73;11.05;;;;;;;23.60;62.20;97902.69;5030253;28;20494;-73
2022/08/19 06:09:10;;;;;;;14.32;10.50;;;;;;;23.65;62.24;97907.09;5017869;28;20034;-74
2022/08/19 06:11:40;;;;;;;16.73;10.68;;;;;;;23.71;62.32;97908.31;5021448;28;20100;-73
2022/08/19 06:14:08;;;;;;;12.77;10.25;;;;;;;23.78;62.26;97908.31;5029604;28;20038;-74
2022/08/19 06:16:39;;;;;;;15.38;11.32;;;;;;;23.84;62.15;97924.72;5028533;28;20033;-74
2022/08/19 06:19:07;;;;;;;14.02;10.18;;;;;;;23.90;62.03;97917.50;5022034;28;20030;-73
2022/08/19 06:21:37;;;;;;;12.13;10.83;;;;;;;23.96;61.79;97924.31;5031714;28;20045;-76
2022/08/19 06:24:04;;;;;;;12.63;10.10;;;;;;;24.04;62.16;97931.53;5029397;28;20043;-76
2022/08/19 06:26:30;;;;;;;14.98;10.00;;;;;;;24.11;62.15;97933.53;5028286;28;20035;-75
2022/08/19 06:28:56;;;;;;;14.68;10.55;;;;;;;24.17;61.94;97931.16;5027427;28;20034;-76
2022/08/19 06:31:25;;;;;;;11.90;10.00;;;;;;;24.23;61.68;97930.34;5027958;28;20134;-79
2022/08/19 06:33:51;;;;;;;13.15;10.50;;;;;;;24.33;61.65;97937.13;5029831;28;20029;-80
2022/08/19 06:36:31;;;;;;;15.30;10.85;;;;;;;24.42;62.01;97944.34;5029454;28;20108;-79
2022/08/19 06:39:05;;;;;;;14.25;10.50;;;;;;;24.52;61.54;97944.31;5030494;28;20029;-79
2022/08/19 06:41:34;;;;;;;14.43;9.90;;;;;;;24.62;61.69;97953.09;5031673;28;20080;-78
2022/08/19 06:43:59;;;;;;;14.55;10.05;;;;;;;24.68;61.40;97957.88;5031681;28;20124;-78
2022/08/19 06:46:26;;;;;;;15.52;11.07;;;;;;;24.78;61.20;97952.69;5033311;28;20530;-79
2022/08/19 06:48:53;;;;;;;14.25;11.55;;;;;;;24.87;60.89;97957.88;5033339;28;20038;-78
2022/08/19 06:51:19;;;;;;;13.13;10.30;;;;;;;24.95;61.07;97965.06;5033032;28;20108;-78
2022/08/19 06:53:49;;;;;;;12.32;9.90;;;;;;;25.04;60.70;97965.44;5034713;28;20029;-79
2022/08/19 06:56:20;;;;;;;11.52;9.57;;;;;;;25.13;60.88;97962.19;5031413;28;20025;-79
2022/08/19 06:58:46;;;;;;;11.60;9.75;;;;;;;25.23;60.72;97966.97;5030772;28;20469;-78
2022/08/19 07:01:12;;;;;;;11.20;9.82;;;;;;;25.31;60.08;97964.16;5033331;28;20033;-79
2022/08/19 07:03:39;;;;;;;10.60;9.50;;;;;;;25.37;60.22;97968.13;5028218;28;20530;-80
2022/08/19 07:06:07;;;;;;;11.65;9.63;;;;;;;25.43;60.06;97986.16;5031856;28;20029;-78
2022/08/19 07:08:33;;;;;;;10.77;9.57;;;;;;;25.51;59.92;97986.94;5028749;28;20026;-78
2022/08/19 07:10:59;;;;;;;11.13;9.07;;;;;;;25.58;59.29;97984.09;5029127;28;20030;-79
2022/08/19 07:13:25;;;;;;;10.20;8.73;;;;;;;25.64;59.60;97985.28;5031265;28;20026;-77
2022/08/19 07:15:51;;;;;;;10.10;9.13;;;;;;;25.71;59.02;97995.66;5032032;28;20036;-78
2022/08/19 07:18:21;;;;;;;10.38;8.85;;;;;;;25.76;58.79;97995.22;5032656;28;20029;-80
2022/08/19 07:20:47;;;;;;;10.88;9.32;;;;;;;25.83;58.56;97998.00;5033240;28;20136;-77
2022/08/19 07:23:13;;;;;;;9.73;8.57;;;;;;;25.90;58.54;97987.91;5033733;28;20593;-79
2022/08/19 07:25:38;;;;;;;11.50;8.85;;;;;;;25.98;58.14;97997.88;5033843;28;20116;-78
2022/08/19 07:28:04;;;;;;;12.45;9.13;;;;;;;26.04;58.28;97990.63;5033566;28;20069;-78
2022/08/19 07:30:30;;;;;;;10.07;9.02;;;;;;;26.12;57.89;98003.41;5033623;28;20498;-78
2022/08/19 07:32:56;;;;;;;11.27;9.05;;;;;;;26.22;57.97;98003.78;5032027;28;20061;-79
2022/08/19 07:35:23;;;;;;;10.93;9.02;;;;;;;26.28;57.82;98010.56;5033275;28;20457;-79
2022/08/19 07:37:49;;;;;;;14.05;9.18;;;;;;;26.33;57.74;98010.09;5033195;28;20108;-79
2022/08/19 07:40:15;;;;;;;16.23;10.20;;;;;;;26.38;57.70;98003.25;5033025;28;20033;-79
2022/08/19 07:42:42;;;;;;;11.88;9.43;;;;;;;26.41;56.99;98013.66;5033305;28;20037;-79
2022/08/19 07:45:09;;;;;;;12.07;9.20;;;;;;;26.46;56.88;98007.59;5034529;28;20049;-79
2022/08/19 07:47:36;;;;;;;11.05;9.73;;;;;;;26.53;56.98;98007.53;5032436;28;20041;-79
2022/08/19 07:50:06;;;;;;;11.43;9.43;;;;;;;26.61;56.92;98002.66;5033835;28;20044;-79
2022/08/19 07:52:31;;;;;;;13.90;10.07;;;;;;;26.70;57.15;98005.75;5034014;28;20119;-79
2022/08/19 07:54:57;;;;;;;13.88;10.02;;;;;;;26.81;57.30;98008.50;5033258;28;20121;-76
2022/08/19 07:57:22;;;;;;;12.18;9.98;;;;;;;26.89;56.78;98007.22;5030611;28;20041;-75
2022/08/19 07:59:47;;;;;;;10.50;9.40;;;;;;;26.96;57.02;98011.97;5032003;28;20025;-73
2022/08/19 08:02:13;;;;;;;13.65;10.35;;;;;;;27.04;56.86;98016.31;5033732;28;20033;-74
2022/08/19 08:10:07;;;;;;;13.30;10.57;;;;;;;27.26;56.86;98021.69;5028248;28;20890;-73
2022/08/19 08:12:42;;;;;;;13.70;10.27;;;;;;;27.31;56.76;98014.78;5033535;28;20503;-72
2022/08/19 08:15:16;;;;;;;14.38;10.05;;;;;;;27.37;56.58;98013.09;5030955;28;20032;-72
2022/08/19 08:17:42;;;;;;;11.60;9.45;;;;;;;27.43;56.72;98017.06;5031821;28;20051;-73
2022/08/19 08:20:08;;;;;;;13.48;10.60;;;;;;;27.46;56.69;98006.97;5033205;28;20538;-72
2022/08/19 08:25:20;;;;;;;11.88;10.15;;;;;;;27.58;56.10;98008.47;5028244;28;20036;-74
2022/08/19 08:27:46;;;;;;;17.30;10.32;;;;;;;27.60;56.04;97998.34;5029894;28;20034;-72
2022/08/19 08:30:15;;;;;;;14.55;10.15;;;;;;;27.63;56.07;97997.50;5029852;28;20029;-72
2022/08/19 08:32:41;;;;;;;13.20;10.15;;;;;;;27.72;56.09;97999.78;5032419;28;20103;-71
2022/08/19 08:35:09;;;;;;;12.43;9.88;;;;;;;27.82;55.98;97992.44;5028763;28;20029;-70
2022/08/19 08:37:35;;;;;;;10.57;9.45;;;;;;;27.92;55.56;97985.81;5022384;28;20033;-73
2022/08/19 08:40:29;;;;;;;10.90;9.45;;;;;;;28.03;55.47;97984.88;5029498;28;20033;-74
2022/08/19 08:43:21;;;;;;;11.85;10.05;;;;;;;28.17;55.47;97987.50;5032824;28;20026;-73
2022/08/19 08:45:59;;;;;;;14.10;9.90;;;;;;;28.33;55.08;97992.47;5030235;28;20399;-74
2022/08/19 08:48:31;;;;;;;18.25;13.77;;;;;;;28.46;55.46;97991.88;5031413;28;20516;-74
2022/08/19 08:51:00;;;;;;;14.02;12.30;;;;;;;28.57;55.36;97991.69;5027011;28;20388;-75
2022/08/19 08:53:26;;;;;;;12.07;10.57;;;;;;;28.65;54.99;97987.53;5029489;28;20083;-73
2022/08/19 08:55:53;;;;;;;13.43;11.15;;;;;;;28.74;54.91;97984.91;5031542;28;20072;-73
2022/08/19 08:58:30;;;;;;;19.00;13.07;;;;;;;28.81;54.72;97984.03;5031763;28;20052;-73
2022/08/19 09:00:57;;;;;;;13.68;9.98;;;;;;;28.90;54.20;97989.09;5012699;28;20033;-73
2022/08/19 09:03:26;;;;;;;14.68;9.88;;;;;;;28.96;54.49;97987.38;5025786;28;20033;-73
2022/08/19 09:06:06;;;;;;;15.38;8.88;;;;;;;29.05;54.09;97995.25;5035388;28;20033;-75
2022/08/19 09:08:50;;;;;;;12.18;8.45;;;;;;;29.13;53.66;97995.94;5022134;28;20057;-74
2022/08/19 09:11:38;;;;;;;11.50;8.65;;;;;;;29.22;53.69;97996.13;5035772;28;20072;-74
2022/08/19 09:14:04;;;;;;;10.65;8.55;;;;;;;29.30;53.23;98000.41;5018524;28;20506;-74
2022/08/19 09:16:29;;;;;;;11.95;8.48;;;;;;;29.35;52.66;97997.09;5024483;28;20029;-75
2022/08/19 09:19:00;;;;;;;11.63;8.10;;;;;;;29.41;52.76;97998.19;5034006;28;20028;-74
2022/08/19 09:21:27;;;;;;;9.32;8.43;;;;;;;29.45;52.22;98000.94;5032452;28;20557;-74
2022/08/19 09:23:53;;;;;;;11.10;7.50;;;;;;;29.49;51.87;98001.66;5030453;28;20075;-75
2022/08/19 09:26:21;;;;;;;11.85;8.27;;;;;;;29.53;52.05;98002.38;5026403;28;20032;-74
2022/08/19 09:28:48;;;;;;;11.02;7.93;;;;;;;29.55;51.97;98001.94;5029064;28;20040;-74
2022/08/19 09:31:16;;;;;;;16.15;8.75;;;;;;;29.62;51.47;98013.09;5026244;28;20531;-75
2022/08/19 09:33:45;;;;;;;10.10;8.30;;;;;;;29.67;50.55;98012.56;5027284;28;20064;-76
2022/08/19 09:36:12;;;;;;;10.27;7.80;;;;;;;29.73;51.01;98012.06;5028089;28;20052;-73
2022/08/19 09:38:41;;;;;;;8.40;7.32;;;;;;;29.78;50.65;98008.72;5030121;28;20045;-73
2022/08/19 09:41:14;;;;;;;10.15;8.18;;;;;;;29.81;50.74;98019.94;5025842;28;20064;-75
2022/08/19 09:43:41;;;;;;;11.50;7.90;;;;;;;29.86;50.41;98016.59;5029778;28;20055;-75
2022/08/19 09:46:09;;;;;;;11.63;8.00;;;;;;;29.92;49.98;98001.94;5026001;28;20476;-73
2022/08/19 09:48:39;;;;;;;9.88;7.75;;;;;;;29.96;50.11;98008.31;5021333;28;20538;-73
2022/08/19 09:51:15;;;;;;;9.32;7.75;;;;;;;30.04;50.38;98006.94;5023933;28;20682;-73
2022/08/19 09:53:41;;;;;;;9.60;8.45;;;;;;;30.10;49.32;98005.19;5031576;28;20087;-73
2022/08/19 09:56:07;;;;;;;10.45;8.02;;;;;;;30.13;49.15;97998.66;5046890;28;20021;-73
2022/08/19 09:58:34;;;;;;;9.23;8.15;;;;;;;30.18;49.25;97997.31;5036741;28;20032;-74
2022/08/19 10:01:01;;;;;;;11.65;8.27;;;;;;;30.25;49.51;98005.66;5028710;28;20087;-73
2022/08/19 10:03:29;;;;;;;14.68;8.40;;;;;;;30.34;49.47;98002.19;5030779;28;20045;-74
2022/08/19 10:05:56;;;;;;;12.35;8.70;;;;;;;30.43;49.08;97998.72;5029118;28;20403;-75
2022/08/19 10:08:29;;;;;;;13.05;7.93;;;;;;;30.52;48.92;98007.41;5022256;28;20034;-74
2022/08/19 10:10:56;;;;;;;10.80;8.13;;;;;;;30.58;48.76;98005.66;5034523;28;20071;-74
2022/08/19 10:13:27;;;;;;;10.35;7.28;;;;;;;30.64;48.00;97994.59;5034845;28;20040;-74
2022/08/19 10:15:55;;;;;;;8.88;7.68;;;;;;;30.73;48.07;97997.59;5037282;28;20538;-74
2022/08/19 10:18:23;;;;;;;18.33;8.23;;;;;;;30.89;47.94;97993.91;5014804;28;20042;-74
2022/08/19 10:20:50;;;;;;;11.17;8.53;;;;;;;31.04;48.13;97985.03;5020352;28;20025;-74
2022/08/19 10:23:17;;;;;;;11.43;8.30;;;;;;;31.20;47.71;98001.22;5032044;28;20036;-72
2022/08/19 10:25:43;;;;;;;12.57;8.43;;;;;;;31.30;47.27;97982.31;5029794;28;20038;-73
2022/08/19 10:28:11;;;;;;;9.18;8.05;;;;;;;31.39;47.25;97985.28;5014569;28;20072;-74
2022/08/19 10:30:41;;;;;;;9.38;7.78;;;;;;;31.50;47.06;97979.28;5013828;28;20026;-73
2022/08/19 10:33:07;;;;;;;10.73;8.45;;;;;;;31.57;47.08;97972.63;5022777;28;20028;-73
2022/08/19 10:35:33;;;;;;;15.02;8.63;;;;;;;31.67;46.87;97967.88;5032899;28;20030;-72
2022/08/19 10:37:58;;;;;;;17.55;8.00;;;;;;;31.75;46.77;97957.94;5032786;28;20387;-71
2022/08/19 10:40:25;;;;;;;12.00;7.38;;;;;;;31.86;46.37;97954.75;5033805;28;20024;-73
2022/08/19 10:42:51;;;;;;;13.27;7.40;;;;;;;31.92;45.58;97950.13;5023306;28;20037;-73
2022/08/19 10:45:16;;;;;;;11.70;7.57;;;;;;;31.93;45.65;97949.66;5031950;28;20041;-74
2022/08/19 10:47:42;;;;;;;11.52;7.85;;;;;;;31.98;45.48;97950.31;5031421;28;20033;-73
2022/08/19 10:52:51;;;;;;;18.00;7.78;;;;;;;32.12;45.27;97963.25;5031181;28;20111;-73
2022/08/19 10:58:15;;;;;;;11.93;7.35;;;;;;;32.32;45.10;97963.81;5031527;28;20467;-75
2022/08/19 11:00:43;;;;;;;14.15;7.95;;;;;;;32.42;44.32;97961.06;5032530;28;20561;-74
2022/08/19 11:03:08;;;;;;;10.00;7.32;;;;;;;32.47;44.05;97971.84;5031222;28;20027;-74
2022/08/19 11:05:34;;;;;;;9.43;6.88;;;;;;;32.49;43.72;97970.16;5031953;28;20036;-74
2022/08/19 11:07:59;;;;;;;10.65;7.13;;;;;;;32.54;43.57;97971.59;5031471;28;20029;-74
2022/08/19 11:10:25;;;;;;;11.40;7.13;;;;;;;32.59;43.24;97971.00;5028695;28;20025;-74
2022/08/19 11:12:54;;;;;;;9.07;7.28;;;;;;;32.67;43.20;97972.38;5027200;28;20052;-75
2022/08/19 11:15:20;;;;;;;7.78;6.57;;;;;;;32.73;43.11;97966.88;5028160;28;20119;-74
2022/08/19 11:17:45;;;;;;;9.95;6.65;;;;;;;32.78;42.97;97957.78;5031548;28;20112;-74
2022/08/19 11:20:12;;;;;;;10.77;7.63;;;;;;;32.84;42.89;97957.22;5027787;28;20025;-74
2022/08/19 11:22:38;;;;;;;9.13;6.82;;;;;;;32.88;42.40;97953.00;5029276;28;20091;-74
2022/08/19 11:25:04;;;;;;;11.63;7.03;;;;;;;32.96;42.36;97948.66;5060560;28;20025;-74
2022/08/19 11:27:33;;;;;;;7.75;6.38;;;;;;;33.01;42.10;97947.28;5029721;28;20064;-74
2022/08/19 11:29:59;;;;;;;9.95;6.32;;;;;;;33.11;42.45;97953.81;5029761;28;20047;-74
2022/08/19 11:32:24;;;;;;;10.65;8.13;;;;;;;33.13;42.00;97959.81;5030990;28;20108;-75
2022/08/19 11:34:50;;;;;;;11.48;7.35;;;;;;;33.11;41.35;97956.66;5026193;28;20033;-76
2022/08/19 11:37:15;;;;;;;10.68;6.43;;;;;;;33.05;41.28;97949.97;5027095;28;21578;-73
2022/08/19 11:39:41;;;;;;;11.90;6.40;;;;;;;33.01;41.05;97963.50;5029275;28;20537;-77
2022/08/19 11:42:55;;;;;;;10.15;6.55;;;;;;;32.96;40.87;97951.47;5029029;28;20029;-78
2022/08/19 11:44:53;;;;;;;12.57;6.78;;;;;;;32.92;40.73;97950.03;5029592;28;20529;-76